createdAt,value
2022-11-17T00:02:17.002Z,97314.53
2022-11-17T00:04:44.495Z,97312.91
2022-11-17T00:07:11.057Z,97314.03
2022-11-17T00:09:38.990Z,97301.97
2022-11-17T00:12:05.997Z,97302.66
2022-11-17T00:14:33.390Z,97304.63
2022-11-17T00:16:59.936Z,97310.38
2022-11-17T00:19:26.456Z,97308.34
2022-11-17T00:21:53.201Z,97305.66
2022-11-17T00:24:19.707Z,97294.72
2022-11-17T00:26:47.604Z,97300.94
2022-11-17T00:29:14.124Z,97283.13
2022-11-17T00:31:40.621Z,97276.97
2022-11-17T00:34:07.872Z,97276.97
2022-11-17T00:36:37.454Z,97274.31
2022-11-17T00:39:04.030Z,97260.81
2022-11-17T00:41:30.638Z,97263.50
2022-11-17T00:43:58.611Z,97253.13
2022-11-17T00:46:25.297Z,97254.72
2022-11-17T00:48:51.858Z,97256.28
2022-11-17T00:51:18.767Z,97248.94
2022-11-17T00:53:45.319Z,97240.47
2022-11-17T00:56:12.019Z,97240.84
2022-11-17T00:58:38.554Z,97234.63
2022-11-17T01:01:06.717Z,97233.84
2022-11-17T01:03:35.033Z,97228.09
2022-11-17T01:06:06.726Z,97229.31
2022-11-17T01:08:33.437Z,97225.56
2022-11-17T01:11:11.385Z,97227.47
2022-11-17T01:13:39.441Z,97225.13
2022-11-17T01:16:09.077Z,97229.41
2022-11-17T01:18:36.341Z,97229.06
2022-11-17T01:21:05.029Z,97232.53
2022-11-17T01:23:32.682Z,97232.53
2022-11-17T01:26:07.550Z,97228.31
2022-11-17T01:28:34.843Z,97229.50
2022-11-17T01:31:03.504Z,97219.09
2022-11-17T01:33:31.469Z,97216.38
2022-11-17T01:36:01.043Z,97217.94
2022-11-17T01:38:27.612Z,97210.63
2022-11-17T01:40:54.261Z,97203.72
2022-11-17T01:43:36.843Z,97198.66
2022-11-17T01:46:04.408Z,97186.72
2022-11-17T01:48:32.338Z,97188.34
2022-11-17T01:50:59.090Z,97174.03
2022-11-17T01:53:26.114Z,97177.97
2022-11-17T01:55:56.136Z,97167.47
2022-11-17T01:58:28.047Z,97154.41
2022-11-17T02:00:55.497Z,97154.41
2022-11-17T02:03:24.111Z,97151.00
2022-11-17T02:05:56.230Z,97144.00
2022-11-17T02:08:27.688Z,97133.63
2022-11-17T02:10:54.823Z,97129.00
2022-11-17T02:13:22.546Z,97127.06
2022-11-17T02:15:49.199Z,97132.09
2022-11-17T02:18:17.495Z,97120.50
2022-11-17T02:21:06.304Z,97117.03
2022-11-17T02:24:03.650Z,97123.19
2022-11-17T02:27:08.745Z,97114.34
2022-11-17T02:29:41.951Z,97112.03
2022-11-17T02:32:16.304Z,97110.53
2022-11-17T02:34:46.656Z,97104.00
2022-11-17T02:37:22.785Z,97109.41
2022-11-17T02:39:55.970Z,97102.50
2022-11-17T02:42:27.457Z,97095.19
2022-11-17T02:44:58.400Z,97078.56
2022-11-17T02:47:28.718Z,97073.94
2022-11-17T02:49:59.182Z,97070.03
2022-11-17T02:52:27.654Z,97058.44
2022-11-17T02:54:59.337Z,97049.56
2022-11-17T02:57:29.704Z,97036.47
2022-11-17T03:00:00.553Z,97045.72
2022-11-17T03:02:42.520Z,97044.94
2022-11-17T03:05:16.541Z,97035.69
2022-11-17T03:07:58.440Z,97041.88
2022-11-17T03:10:35.368Z,97028.34
2022-11-17T03:13:09.602Z,97021.03
2022-11-17T03:15:45.723Z,97023.03
2022-11-17T03:18:20.188Z,97011.41
2022-11-17T03:20:56.956Z,97008.34
2022-11-17T03:23:31.576Z,97001.41
2022-11-17T03:25:59.584Z,96993.69
2022-11-17T03:28:30.203Z,96997.94
2022-11-17T03:31:01.092Z,96992.94
2022-11-17T03:33:28.961Z,96991.81
2022-11-17T03:36:00.896Z,96987.53
2022-11-17T03:38:32.103Z,96986.41
2022-11-17T03:41:02.582Z,96983.34
2022-11-17T03:43:30.708Z,96969.81
2022-11-17T03:46:04.414Z,96970.22
2022-11-17T03:48:36.699Z,96958.25
2022-11-17T03:51:06.691Z,96961.75
2022-11-17T03:53:34.893Z,96961.00
2022-11-17T03:56:09.067Z,96959.09
2022-11-17T03:58:42.754Z,96962.56
2022-11-17T04:01:11.411Z,96965.72
2022-11-17T04:03:38.282Z,96961.88
2022-11-17T04:06:05.209Z,96965.28
2022-11-17T04:08:31.790Z,96964.06
2022-11-17T04:10:58.344Z,96966.38
2022-11-17T04:13:24.912Z,96967.91
2022-11-17T04:15:51.575Z,96963.59
2022-11-17T04:18:19.826Z,96969.00
2022-11-17T04:20:49.964Z,96964.38
2022-11-17T04:23:16.778Z,96970.16
2022-11-17T04:25:45.299Z,96963.91
2022-11-17T04:28:11.776Z,96972.78
2022-11-17T04:30:38.422Z,96977.44
2022-11-17T04:33:04.894Z,96971.25
2022-11-17T04:35:32.792Z,96975.03
2022-11-17T04:37:59.293Z,96969.19
2022-11-17T04:40:25.819Z,96966.47
2022-11-17T04:42:52.446Z,96961.41
2022-11-17T04:45:18.936Z,96970.69
2022-11-17T04:47:45.442Z,96954.03
2022-11-17T04:50:11.980Z,96950.53
2022-11-17T04:52:39.975Z,96950.13
2022-11-17T04:55:07.203Z,96945.84
2022-11-17T04:57:33.853Z,96943.09
2022-11-17T05:00:00.497Z,96938.03
2022-11-17T05:02:27.072Z,96931.06
2022-11-17T05:04:53.585Z,96926.78
2022-11-17T05:07:20.162Z,96934.91
2022-11-17T05:09:48.063Z,96934.13
2022-11-17T05:12:14.562Z,96915.19
2022-11-17T05:14:41.106Z,96906.28
2022-11-17T05:17:09.806Z,96905.50
2022-11-17T05:19:39.048Z,96902.78
2022-11-17T05:22:06.843Z,96900.88
2022-11-17T05:24:33.349Z,96895.09
2022-11-17T05:27:01.395Z,96878.50
2022-11-17T05:29:27.901Z,96877.38
2022-11-17T05:31:54.567Z,96866.16
2022-11-17T05:34:21.063Z,96873.91
2022-11-17T05:36:48.178Z,96855.41
2022-11-17T05:39:14.670Z,96854.28
2022-11-17T05:41:41.358Z,96858.13
2022-11-17T05:44:09.273Z,96865.44
2022-11-17T05:46:35.795Z,96861.25
2022-11-17T05:49:03.559Z,96862.81
2022-11-17T05:51:30.103Z,96840.03
2022-11-17T05:53:56.649Z,96859.38
2022-11-17T05:56:38.503Z,96845.47
2022-11-17T05:59:19.366Z,96842.00
2022-11-17T06:01:54.757Z,96846.63
2022-11-17T06:04:21.646Z,96854.72
2022-11-17T06:06:49.094Z,96856.25
2022-11-17T06:09:15.935Z,96841.94
2022-11-17T06:11:42.577Z,96857.81
2022-11-17T06:14:09.298Z,96848.94
2022-11-17T06:16:43.848Z,96836.94
2022-11-17T06:19:16.813Z,96843.91
2022-11-17T06:22:10.125Z,96843.97
2022-11-17T06:24:31.535Z,96852.94
2022-11-17T06:26:58.067Z,96849.84
2022-11-17T06:29:25.119Z,96847.16
2022-11-17T06:31:53.152Z,96842.94
2022-11-17T06:34:19.806Z,96864.66
2022-11-17T06:36:46.454Z,96850.78
2022-11-17T06:39:13.099Z,96857.72
2022-11-17T06:41:39.595Z,96851.16
2022-11-17T06:44:06.267Z,96857.78
2022-11-17T06:46:32.974Z,96863.63
2022-11-17T06:49:00.820Z,96867.13
2022-11-17T06:51:27.361Z,96858.22
2022-11-17T06:53:53.950Z,96865.97
2022-11-17T06:56:20.607Z,96864.06
2022-11-17T06:58:47.177Z,96865.56
2022-11-17T07:01:15.221Z,96868.25
2022-11-17T07:03:42.828Z,96866.25
2022-11-17T07:06:11.817Z,96863.97
2022-11-17T07:08:39.103Z,96865.13
2022-11-17T07:11:07.621Z,96872.88
2022-11-17T07:13:34.908Z,96867.13
2022-11-17T07:16:05.795Z,96864.84
2022-11-17T07:18:32.899Z,96857.88
2022-11-17T07:21:03.141Z,96859.47
2022-11-17T07:23:31.924Z,96851.34
2022-11-17T07:25:58.571Z,96849.06
2022-11-17T07:28:25.315Z,96857.16
2022-11-17T07:30:52.491Z,96849.84
2022-11-17T07:33:19.216Z,96842.06
2022-11-17T07:35:45.921Z,96839.00
2022-11-17T07:38:12.871Z,96833.25
2022-11-17T07:40:41.421Z,96826.75
2022-11-17T07:43:08.011Z,96819.78
2022-11-17T07:45:35.420Z,96819.41
2022-11-17T07:48:03.673Z,96827.91
2022-11-17T07:50:30.723Z,96825.97
2022-11-17T07:52:58.052Z,96823.22
2022-11-17T07:55:25.855Z,96820.88
2022-11-17T07:57:58.657Z,96827.44
2022-11-17T08:00:26.212Z,96825.09
2022-11-17T08:02:52.928Z,96822.75
2022-11-17T08:05:19.980Z,96824.75
2022-11-17T08:07:54.131Z,96829.41
2022-11-17T08:10:21.252Z,96839.88
2022-11-17T08:12:50.935Z,96843.00
2022-11-17T08:15:19.021Z,96841.50
2022-11-17T08:17:45.783Z,96850.00
2022-11-17T08:20:12.552Z,96849.63
2022-11-17T08:22:39.172Z,96850.03
2022-11-17T08:25:06.469Z,96841.13
2022-11-17T08:27:33.213Z,96844.25
2022-11-17T08:29:59.823Z,96839.63
2022-11-17T08:32:27.710Z,96824.94
2022-11-17T08:34:54.903Z,96838.09
2022-11-17T08:37:21.461Z,96834.25
2022-11-17T08:39:48.094Z,96841.25
2022-11-17T08:42:16.034Z,96840.06
2022-11-17T08:44:42.704Z,96841.63
2022-11-17T08:47:09.260Z,96843.97
2022-11-17T08:49:37.204Z,96847.06
2022-11-17T08:52:04.044Z,96850.16
2022-11-17T08:54:30.605Z,96852.06
2022-11-17T08:56:57.758Z,96852.44
2022-11-17T08:59:24.907Z,96850.91
2022-11-17T09:01:51.499Z,96842.03
2022-11-17T09:04:18.518Z,96838.94
2022-11-17T09:06:46.430Z,96839.75
2022-11-17T09:09:13.170Z,96836.34
2022-11-17T09:11:39.822Z,96835.16
2022-11-17T09:14:07.250Z,96834.44
2022-11-17T09:16:34.492Z,96833.34
2022-11-17T09:19:01.057Z,96839.94
2022-11-17T09:21:27.671Z,96840.78
2022-11-17T09:23:55.972Z,96834.63
2022-11-17T09:26:22.578Z,96832.75
2022-11-17T09:28:49.136Z,96826.53
2022-11-17T09:31:17.854Z,96838.22
2022-11-17T09:33:44.810Z,96833.25
2022-11-17T09:36:12.848Z,96827.88
2022-11-17T09:38:40.389Z,96836.03
2022-11-17T09:41:23.966Z,96829.03
2022-11-17T09:43:59.393Z,96826.72
2022-11-17T09:46:34.160Z,96820.53
2022-11-17T09:49:07.842Z,96833.69
2022-11-17T09:51:38.214Z,96823.63
2022-11-17T09:54:13.312Z,96817.47
2022-11-17T09:56:41.580Z,96823.31
2022-11-17T09:59:12.701Z,96816.31
2022-11-17T10:01:39.323Z,96817.53
2022-11-17T10:04:11.257Z,96821.47
2022-11-17T10:06:37.951Z,96819.59
2022-11-17T10:09:11.667Z,96819.19
2022-11-17T10:11:42.162Z,96820.75
2022-11-17T10:14:14.316Z,96815.00
2022-11-17T10:16:43.339Z,96813.88
2022-11-17T10:19:17.620Z,96816.59
2022-11-17T10:21:45.700Z,96810.84
2022-11-17T10:24:33.437Z,96799.63
2022-11-17T10:27:01.056Z,96804.69
2022-11-17T10:29:29.241Z,96796.53
2022-11-17T10:31:55.811Z,96785.69
2022-11-17T10:34:40.647Z,96783.78
2022-11-17T10:37:24.708Z,96791.13
2022-11-17T10:40:07.098Z,96808.53
2022-11-17T10:42:33.706Z,96803.09
2022-11-17T10:45:02.731Z,96805.41
2022-11-17T10:47:38.485Z,96808.53
2022-11-17T10:50:14.441Z,96801.19
2022-11-17T10:52:41.025Z,96801.97
2022-11-17T10:55:19.346Z,96800.03
2022-11-17T10:57:49.892Z,96803.91
2022-11-17T11:00:27.467Z,96806.25
2022-11-17T11:03:14.985Z,96801.25
2022-11-17T11:05:55.618Z,96810.53
2022-11-17T11:08:24.383Z,96813.97
2022-11-17T11:10:53.351Z,96818.66
2022-11-17T11:13:27.541Z,96812.09
2022-11-17T11:15:55.563Z,96824.91
2022-11-17T11:18:22.323Z,96816.91
2022-11-17T11:20:58.880Z,96836.34
2022-11-17T11:23:38.865Z,96846.09
2022-11-17T11:26:17.053Z,96843.00
2022-11-17T11:28:56.792Z,96842.34
2022-11-17T11:31:32.659Z,96840.91
2022-11-17T11:34:09.413Z,96837.56
2022-11-17T11:36:39.873Z,96834.94
2022-11-17T11:39:19.456Z,96842.44
2022-11-17T11:42:07.463Z,96840.13
2022-11-17T11:45:04.270Z,96831.25
2022-11-17T11:47:49.344Z,96831.69
2022-11-17T11:50:20.808Z,96846.88
2022-11-17T11:52:51.893Z,96831.44
2022-11-17T11:55:22.066Z,96838.03
2022-11-17T11:57:55.332Z,96839.22
2022-11-17T12:00:22.399Z,96847.78
2022-11-17T12:02:55.599Z,96847.16
2022-11-17T12:05:29.157Z,96844.09
2022-11-17T12:08:10.332Z,96846.06
2022-11-17T12:10:45.478Z,96843.00
2022-11-17T12:13:14.607Z,96844.56
2022-11-17T12:15:41.291Z,96842.22
2022-11-17T12:18:14.283Z,96855.44
2022-11-17T12:20:52.393Z,96859.75
2022-11-17T12:23:26.430Z,96861.69
2022-11-17T12:25:55.781Z,96865.19
2022-11-17T12:28:32.669Z,96863.63
2022-11-17T12:31:05.145Z,96873.28
2022-11-17T12:34:28.835Z,96872.09
2022-11-17T12:37:19.935Z,96884.50
2022-11-17T12:39:55.150Z,96889.53
2022-11-17T12:42:22.219Z,96881.38
2022-11-17T12:44:55.063Z,96885.28
2022-11-17T12:47:23.557Z,96885.31
2022-11-17T12:50:14.307Z,96904.81
2022-11-17T12:52:55.837Z,96890.84
2022-11-17T12:55:30.279Z,96892.41
2022-11-17T12:58:10.543Z,96895.56
2022-11-17T13:00:44.447Z,96906.06
2022-11-17T13:03:16.281Z,96902.56
2022-11-17T13:05:42.842Z,96906.44
2022-11-17T13:08:20.002Z,96903.72
2022-11-17T13:10:47.150Z,96907.63
2022-11-17T13:13:17.387Z,96908.72
2022-11-17T13:15:44.540Z,96917.25
2022-11-17T13:18:18.030Z,96909.84
2022-11-17T13:20:46.944Z,96931.16
2022-11-17T13:23:20.580Z,96961.38
2022-11-17T13:25:47.564Z,96961.31
2022-11-17T13:28:27.898Z,96957.94
2022-11-17T13:30:54.510Z,96956.97
2022-11-17T13:33:23.743Z,96951.00
2022-11-17T13:36:07.852Z,96967.09
2022-11-17T13:38:35.759Z,96960.78
2022-11-17T13:41:03.699Z,96972.69
2022-11-17T13:43:37.088Z,96968.31
2022-11-17T13:46:03.693Z,96966.09
2022-11-17T13:48:30.985Z,96960.28
2022-11-17T13:51:15.688Z,96958.88
2022-11-17T13:53:45.435Z,96959.63
2022-11-17T13:56:22.440Z,96959.94
2022-11-17T13:58:50.703Z,96959.63
2022-11-17T14:01:21.603Z,96969.78
2022-11-17T14:03:48.326Z,96978.84
2022-11-17T14:06:14.915Z,96974.19
2022-11-17T14:09:01.108Z,96956.41
2022-11-17T14:11:27.762Z,96954.94
2022-11-17T14:13:55.548Z,96959.16
2022-11-17T14:16:25.747Z,96950.78
2022-11-17T14:18:58.309Z,96959.47
2022-11-17T14:21:25.228Z,96952.91
2022-11-17T14:24:02.477Z,96951.66
2022-11-17T14:26:29.074Z,96950.38
2022-11-17T14:28:55.677Z,96955.78
2022-11-17T14:31:22.209Z,96951.06
2022-11-17T14:33:49.273Z,96959.13
2022-11-17T14:36:17.168Z,96957.84
2022-11-17T14:38:44.691Z,96961.63
2022-11-17T14:41:14.171Z,96956.88
2022-11-17T14:43:40.731Z,96951.25
2022-11-17T14:46:11.874Z,96945.75
2022-11-17T14:48:38.389Z,96946.38
2022-11-17T14:51:05.038Z,96952.81
2022-11-17T14:53:31.583Z,96955.75
2022-11-17T14:55:58.166Z,96964.91
2022-11-17T14:58:26.075Z,96959.75
2022-11-17T15:00:52.596Z,96963.91
2022-11-17T15:03:19.235Z,96966.09
2022-11-17T15:05:45.894Z,96967.91
2022-11-17T15:08:12.991Z,96974.38
2022-11-17T15:10:43.174Z,96971.91
2022-11-17T15:13:11.265Z,96978.81
2022-11-17T15:15:39.191Z,96979.50
2022-11-17T15:18:05.894Z,96977.06
2022-11-17T15:20:32.456Z,96980.81
2022-11-17T15:23:03.059Z,96971.03
2022-11-17T15:25:30.225Z,96977.19
2022-11-17T15:27:56.976Z,96978.34
2022-11-17T15:30:23.658Z,96976.34
2022-11-17T15:32:51.531Z,96978.94
2022-11-17T15:35:18.185Z,96972.31
2022-11-17T15:37:44.812Z,96972.63
2022-11-17T15:40:16.423Z,96977.13
2022-11-17T15:42:45.697Z,96976.66
2022-11-17T15:45:12.289Z,96981.25
2022-11-17T15:47:38.823Z,96987.41
2022-11-17T15:50:08.322Z,96982.78
2022-11-17T15:53:02.153Z,96993.25
2022-11-17T15:55:21.609Z,96983.22
2022-11-17T15:57:48.146Z,96990.56
2022-11-17T16:00:16.170Z,96989.38
2022-11-17T16:02:42.793Z,96988.59
2022-11-17T16:05:10.703Z,96995.53
2022-11-17T16:07:37.424Z,96998.66
2022-11-17T16:10:04.664Z,96994.91
2022-11-17T16:12:31.257Z,96999.19
2022-11-17T16:14:58.144Z,96991.84
2022-11-17T16:17:24.767Z,97004.59
2022-11-17T16:19:51.350Z,97003.44
2022-11-17T16:22:19.317Z,97008.06
2022-11-17T16:24:45.849Z,97001.88
2022-11-17T16:27:13.702Z,97003.44
2022-11-17T16:29:40.365Z,96996.06
2022-11-17T16:32:06.925Z,97005.72
2022-11-17T16:34:33.584Z,97009.94
2022-11-17T16:37:00.176Z,97004.50
2022-11-17T16:39:28.133Z,97002.16
2022-11-17T16:41:54.684Z,97006.00
2022-11-17T16:44:21.352Z,97004.44
2022-11-17T16:46:48.718Z,96996.31
2022-11-17T16:49:17.501Z,97002.13
2022-11-17T16:51:47.402Z,97009.03
2022-11-17T16:54:14.473Z,97017.16
2022-11-17T16:56:42.434Z,97013.72
2022-11-17T16:59:09.963Z,97013.34
2022-11-17T17:01:36.941Z,97022.25
2022-11-17T17:04:05.765Z,97018.91
2022-11-17T17:06:33.262Z,97023.16
2022-11-17T17:09:01.881Z,97022.44
2022-11-17T17:11:28.843Z,97026.38
2022-11-17T17:13:56.775Z,97030.28
2022-11-17T17:16:23.843Z,97034.91
2022-11-17T17:18:54.859Z,97026.00
2022-11-17T17:21:21.559Z,97025.22
2022-11-17T17:23:48.203Z,97024.88
2022-11-17T17:26:16.479Z,97025.59
2022-11-17T17:28:44.706Z,97026.00
2022-11-17T17:31:19.602Z,97029.50
2022-11-17T17:33:48.397Z,97029.44
2022-11-17T17:36:16.586Z,97032.84
2022-11-17T17:38:43.278Z,97034.78
2022-11-17T17:41:11.121Z,97031.34
2022-11-17T17:43:38.624Z,97032.91
2022-11-17T17:46:08.406Z,97039.84
2022-11-17T17:48:40.035Z,97035.50
2022-11-17T17:51:09.240Z,97044.00
2022-11-17T17:53:36.251Z,97045.47
2022-11-17T17:56:05.448Z,97045.13
2022-11-17T17:58:32.627Z,97040.84
2022-11-17T18:01:07.944Z,97039.34
2022-11-17T18:03:34.568Z,97040.50
2022-11-17T18:06:02.607Z,97045.13
2022-11-17T18:08:29.186Z,97043.91
2022-11-17T18:10:59.498Z,97053.97
2022-11-17T18:13:30.084Z,97044.28
2022-11-17T18:15:57.106Z,97062.03
2022-11-17T18:18:23.714Z,97045.34
2022-11-17T18:20:58.479Z,97058.81
2022-11-17T18:23:27.709Z,97050.78
2022-11-17T18:25:54.330Z,97052.69
2022-11-17T18:28:20.940Z,97053.47
2022-11-17T18:30:47.591Z,97056.91
2022-11-17T18:33:14.120Z,97051.78
2022-11-17T18:35:40.669Z,97054.75
2022-11-17T18:38:07.244Z,97053.84
2022-11-17T18:40:35.201Z,97049.78
2022-11-17T18:43:01.773Z,97056.56
2022-11-17T18:45:28.388Z,97049.09
2022-11-17T18:47:54.931Z,97055.84
2022-11-17T18:50:21.444Z,97061.47
2022-11-17T18:52:48.015Z,97055.91
2022-11-17T18:55:14.590Z,97051.56
2022-11-17T18:57:45.053Z,97058.03
2022-11-17T19:00:13.127Z,97052.88
2022-11-17T19:02:39.722Z,97055.19
2022-11-17T19:05:07.139Z,97048.06
2022-11-17T19:07:33.969Z,97055.19
2022-11-17T19:10:00.640Z,97043.88
2022-11-17T19:12:27.221Z,97049.19
2022-11-17T19:14:55.161Z,97055.34
2022-11-17T19:17:21.767Z,97065.69
2022-11-17T19:19:48.288Z,97056.47
2022-11-17T19:22:14.840Z,97060.97
2022-11-17T19:24:41.431Z,97067.44
2022-11-17T19:27:08.001Z,97078.25
2022-11-17T19:29:34.721Z,97072.69
2022-11-17T19:32:02.680Z,97077.38
2022-11-17T19:34:29.214Z,97077.78
2022-11-17T19:36:55.883Z,97074.84
2022-11-17T19:39:22.452Z,97086.41
2022-11-17T19:41:49.010Z,97082.84
2022-11-17T19:44:15.783Z,97086.56
2022-11-17T19:46:42.352Z,97084.91
2022-11-17T19:49:11.753Z,97095.97
2022-11-17T19:51:38.362Z,97086.31
2022-11-17T19:54:06.759Z,97087.88
2022-11-17T19:56:33.695Z,97087.16
2022-11-17T19:59:00.357Z,97093.97
2022-11-17T20:01:28.474Z,97082.66
2022-11-17T20:03:55.737Z,97089.19
2022-11-17T20:06:25.992Z,97090.22
2022-11-17T20:08:53.316Z,97095.97
2022-11-17T20:11:21.399Z,97105.63
2022-11-17T20:13:48.859Z,97108.59
2022-11-17T20:16:17.174Z,97112.88
2022-11-17T20:18:45.164Z,97127.16
2022-11-17T20:21:12.100Z,97122.28
2022-11-17T20:23:40.396Z,97119.94
2022-11-17T20:26:10.719Z,97130.47
2022-11-17T20:28:38.083Z,97129.78
2022-11-17T20:31:08.464Z,97126.03
2022-11-17T20:33:35.018Z,97136.00
2022-11-17T20:36:02.337Z,97132.16
2022-11-17T20:38:28.935Z,97134.75
2022-11-17T20:40:58.378Z,97132.84
2022-11-17T20:43:25.440Z,97133.28
2022-11-17T20:45:52.077Z,97131.38
2022-11-17T20:48:19.055Z,97131.91
2022-11-17T20:50:54.984Z,97131.47
2022-11-17T20:53:21.775Z,97145.66
2022-11-17T20:55:48.349Z,97154.47
2022-11-17T20:58:16.449Z,97157.50
2022-11-17T21:00:43.182Z,97152.03
2022-11-17T21:03:09.780Z,97149.41
2022-11-17T21:05:36.338Z,97152.47
2022-11-17T21:08:02.922Z,97153.59
2022-11-17T21:10:29.474Z,97148.19
2022-11-17T21:12:57.144Z,97144.00
2022-11-17T21:15:25.113Z,97156.03
2022-11-17T21:17:51.920Z,97156.81
2022-11-17T21:20:18.455Z,97154.00
2022-11-17T21:22:45.090Z,97172.91
2022-11-17T21:25:11.683Z,97180.22
2022-11-17T21:27:38.260Z,97171.59
2022-11-17T21:30:05.822Z,97173.19
2022-11-17T21:32:33.687Z,97170.38
2022-11-17T21:35:00.347Z,97178.41
2022-11-17T21:37:26.884Z,97171.44
2022-11-17T21:39:53.493Z,97178.47
2022-11-17T21:42:20.256Z,97171.50
2022-11-17T21:44:46.805Z,97175.78
2022-11-17T21:47:13.337Z,97172.06
2022-11-17T21:49:41.418Z,97175.53
2022-11-17T21:52:07.980Z,97172.91
2022-11-17T21:54:34.616Z,97174.75
2022-11-17T21:57:01.261Z,97172.28
2022-11-17T21:59:27.793Z,97179.88
2022-11-17T22:01:54.728Z,97182.81
2022-11-17T22:04:21.323Z,97188.78
2022-11-17T22:06:49.293Z,97194.00
2022-11-17T22:09:16.311Z,97190.44
2022-11-17T22:11:43.080Z,97191.13
2022-11-17T22:14:11.520Z,97191.91
2022-11-17T22:16:39.165Z,97199.22
2022-11-17T22:19:06.629Z,97205.41
2022-11-17T22:21:33.612Z,97206.97
2022-11-17T22:24:01.561Z,97203.47
2022-11-17T22:26:28.166Z,97208.53
2022-11-17T22:28:55.980Z,97203.94
2022-11-17T22:31:23.038Z,97206.25
2022-11-17T22:33:50.353Z,97208.97
2022-11-17T22:36:17.766Z,97215.16
2022-11-17T22:38:44.999Z,97210.19
2022-11-17T22:41:13.974Z,97213.69
2022-11-17T22:43:40.757Z,97224.94
2022-11-17T22:46:10.528Z,97217.63
2022-11-17T22:48:38.124Z,97214.59
2022-11-17T22:51:05.575Z,97221.53
2022-11-17T22:53:32.898Z,97230.06
2022-11-17T22:56:02.042Z,97225.13
2022-11-17T22:58:30.242Z,97223.66
2022-11-17T23:00:57.038Z,97224.88
2022-11-17T23:03:23.734Z,97228.03
2022-11-17T23:05:50.462Z,97229.94
2022-11-17T23:08:17.376Z,97228.03
2022-11-17T23:10:43.911Z,97237.69
2022-11-17T23:13:10.532Z,97238.47
2022-11-17T23:15:39.460Z,97227.69
2022-11-17T23:18:06.078Z,97227.34
2022-11-17T23:20:32.682Z,97230.50
2022-11-17T23:22:59.286Z,97233.19
2022-11-17T23:25:25.859Z,97234.31
2022-11-17T23:27:52.610Z,97235.78
2022-11-17T23:30:19.210Z,97245.00
2022-11-17T23:32:47.568Z,97234.13
2022-11-17T23:35:14.272Z,97246.84
2022-11-17T23:37:40.846Z,97246.84
2022-11-17T23:40:08.900Z,97244.91
2022-11-17T23:42:40.140Z,97249.28
2022-11-17T23:45:10.595Z,97242.75
2022-11-17T23:47:37.276Z,97242.41
2022-11-17T23:50:05.927Z,97236.69
2022-11-17T23:52:32.521Z,97235.56
2022-11-17T23:54:59.048Z,97242.88
2022-11-17T23:57:25.551Z,97253.66
2022-11-17T23:59:52.081Z,97258.69
